Inicio METAR Ruta Wind Satelite

Informe Meteorológico

Fecha: 2020/11/30 15:34:44 Local
2020.11.30 20:34 UTC


Estado: VENCIDO
Operación:
Station name not available
2020.09.30 1900 UTC
Wind: from the WNW (300 degrees) at 9 MPH (8 KT):0
Visibility: 4 mile(s):0
Sky conditions: mostly cloudy
Weather: fog in the vicinity
Temperature: 66 F (19 C)
Dew Point: 60 F (16 C)
Relative Humidity: 82%
Pressure (altimeter): 30.25 in. Hg (1024 hPa)
ob: SKMZ 301900Z 30008KT 8000 VCFG SCT012 BKN050 19/16 A3025 RMK VCFG/N/E
cycle: 19